createdAt,value
2022-10-05T00:01:21.799Z,56.60
2022-10-05T00:03:48.288Z,56.80
2022-10-05T00:06:14.751Z,56.80
2022-10-05T00:08:41.232Z,56.90
2022-10-05T00:11:07.699Z,56.80
2022-10-05T00:13:34.199Z,56.90
2022-10-05T00:16:00.673Z,56.80
2022-10-05T00:18:27.160Z,56.90
2022-10-05T00:20:53.644Z,56.90
2022-10-05T00:23:20.146Z,56.80
2022-10-05T00:25:46.626Z,56.90
2022-10-05T00:28:13.141Z,56.90
2022-10-05T00:30:39.626Z,56.90
2022-10-05T00:33:06.084Z,57.00
2022-10-05T00:35:32.545Z,56.90
2022-10-05T00:37:59.049Z,56.80
2022-10-05T00:40:25.515Z,57.00
2022-10-05T00:42:51.992Z,57.00
2022-10-05T00:45:18.474Z,57.00
2022-10-05T00:47:44.950Z,57.20
2022-10-05T00:50:11.420Z,56.90
2022-10-05T00:52:37.895Z,56.90
2022-10-05T00:55:04.367Z,57.00
2022-10-05T00:57:30.820Z,57.00
2022-10-05T00:59:57.298Z,57.00
2022-10-05T01:02:23.864Z,56.90
2022-10-05T01:04:50.369Z,57.00
2022-10-05T01:07:16.855Z,56.90
2022-10-05T01:09:43.338Z,57.00
2022-10-05T01:12:09.795Z,57.20
2022-10-05T01:14:36.259Z,57.10
2022-10-05T01:17:02.798Z,57.00
2022-10-05T01:19:29.308Z,56.90
2022-10-05T01:21:55.765Z,57.00
2022-10-05T01:24:22.232Z,57.10
2022-10-05T01:26:48.979Z,57.10
2022-10-05T01:29:15.647Z,57.10
2022-10-05T01:31:42.190Z,57.10
2022-10-05T01:34:11.454Z,57.10
2022-10-05T01:36:38.217Z,57.20
2022-10-05T01:39:04.722Z,57.00
2022-10-05T01:41:31.189Z,57.10
2022-10-05T01:43:57.667Z,57.00
2022-10-05T01:46:24.140Z,57.10
2022-10-05T01:48:50.618Z,57.20
2022-10-05T01:51:17.082Z,57.10
2022-10-05T01:53:43.550Z,57.10
2022-10-05T01:56:10.007Z,57.20
2022-10-05T01:58:36.474Z,57.00
2022-10-05T02:01:02.969Z,57.20
2022-10-05T02:03:29.469Z,57.20
2022-10-05T02:05:55.910Z,57.20
2022-10-05T02:08:22.409Z,57.20
2022-10-05T02:10:48.868Z,57.20
2022-10-05T02:13:15.325Z,57.20
2022-10-05T02:15:41.843Z,57.20
2022-10-05T02:18:08.327Z,57.20
2022-10-05T02:20:34.807Z,57.30
2022-10-05T02:23:01.283Z,57.20
2022-10-05T02:25:27.750Z,57.20
2022-10-05T02:27:54.289Z,57.30
2022-10-05T02:30:20.849Z,57.20
2022-10-05T02:32:47.345Z,57.10
2022-10-05T02:35:13.851Z,57.20
2022-10-05T02:37:40.312Z,57.30
2022-10-05T02:40:06.775Z,57.30
2022-10-05T02:42:33.255Z,57.30
2022-10-05T02:44:59.760Z,57.40
2022-10-05T02:47:26.247Z,57.50
2022-10-05T02:49:52.740Z,57.30
2022-10-05T02:52:19.194Z,57.40
2022-10-05T02:54:45.658Z,57.80
2022-10-05T02:57:12.146Z,57.70
2022-10-05T02:59:38.611Z,57.60
2022-10-05T03:02:05.133Z,57.60
2022-10-05T03:04:31.633Z,57.50
2022-10-05T03:06:58.124Z,57.40
2022-10-05T03:09:24.604Z,57.40
2022-10-05T03:11:51.088Z,57.40
2022-10-05T03:14:17.571Z,57.30
2022-10-05T03:16:44.342Z,57.50
2022-10-05T03:19:11.050Z,57.50
2022-10-05T03:21:37.516Z,57.70
2022-10-05T03:24:03.990Z,57.50
2022-10-05T03:26:30.480Z,57.60
2022-10-05T03:28:56.953Z,57.70
2022-10-05T03:31:23.498Z,57.50
2022-10-05T03:33:50.010Z,57.50
2022-10-05T03:36:16.519Z,57.40
2022-10-05T03:38:42.994Z,57.30
2022-10-05T03:41:09.482Z,57.30
2022-10-05T03:43:35.955Z,57.30
2022-10-05T03:46:02.473Z,57.40
2022-10-05T03:48:28.979Z,57.50
2022-10-05T03:50:55.459Z,57.60
2022-10-05T03:53:21.913Z,57.50
2022-10-05T03:55:48.417Z,57.50
2022-10-05T03:58:14.900Z,57.50
2022-10-05T04:00:41.366Z,57.70
2022-10-05T04:03:07.834Z,57.80
2022-10-05T04:05:34.330Z,57.70
2022-10-05T04:08:00.801Z,57.50
2022-10-05T04:10:27.294Z,57.60
2022-10-05T04:12:53.751Z,57.90
2022-10-05T04:15:20.271Z,57.90
2022-10-05T04:17:46.756Z,57.70
2022-10-05T04:20:13.259Z,57.90
2022-10-05T04:22:39.727Z,57.70
2022-10-05T04:25:06.218Z,58.20
2022-10-05T04:27:32.702Z,58.20
2022-10-05T04:29:59.166Z,58.00
2022-10-05T04:32:25.651Z,58.00
2022-10-05T04:34:52.135Z,57.80
2022-10-05T04:37:18.629Z,57.90
2022-10-05T04:39:45.108Z,57.90
2022-10-05T04:42:11.590Z,57.80
2022-10-05T04:44:38.090Z,57.70
2022-10-05T04:47:04.655Z,57.70
2022-10-05T04:49:31.174Z,57.70
2022-10-05T04:51:57.659Z,57.70
2022-10-05T04:54:24.138Z,57.80
2022-10-05T04:56:50.615Z,57.70
2022-10-05T04:59:17.084Z,57.80
2022-10-05T05:01:43.563Z,57.90
2022-10-05T05:04:10.119Z,57.90
2022-10-05T05:06:36.654Z,57.70
2022-10-05T05:09:03.121Z,57.90
2022-10-05T05:11:29.605Z,58.40
2022-10-05T05:13:56.082Z,58.30
2022-10-05T05:16:22.598Z,58.20
2022-10-05T05:18:49.171Z,58.30
2022-10-05T05:21:15.647Z,58.20
2022-10-05T05:23:42.114Z,58.30
2022-10-05T05:26:08.597Z,58.30
2022-10-05T05:28:35.174Z,58.30
2022-10-05T05:31:01.732Z,58.20
2022-10-05T05:33:28.244Z,58.10
2022-10-05T05:35:54.740Z,58.20
2022-10-05T05:38:21.218Z,58.20
2022-10-05T05:40:47.701Z,58.20
2022-10-05T05:43:14.170Z,58.30
2022-10-05T05:45:40.649Z,58.40
2022-10-05T05:48:07.138Z,58.20
2022-10-05T05:50:33.632Z,58.10
2022-10-05T05:53:02.927Z,58.40
2022-10-05T05:55:30.505Z,58.30
2022-10-05T05:57:57.183Z,58.30
2022-10-05T06:00:23.663Z,58.40
2022-10-05T06:02:50.194Z,58.30
2022-10-05T06:05:16.746Z,58.30
2022-10-05T06:07:43.235Z,58.20
2022-10-05T06:10:09.727Z,58.20
2022-10-05T06:12:36.196Z,58.30
2022-10-05T06:15:02.662Z,58.40
2022-10-05T06:17:29.138Z,58.50
2022-10-05T06:19:55.603Z,58.50
2022-10-05T06:22:22.064Z,58.40
2022-10-05T06:24:48.529Z,58.20
2022-10-05T06:27:14.995Z,58.50
2022-10-05T06:29:41.481Z,58.50
2022-10-05T06:32:08.039Z,58.50
2022-10-05T06:34:34.534Z,58.40
2022-10-05T06:37:01.011Z,58.40
2022-10-05T06:39:27.487Z,58.50
2022-10-05T06:41:53.957Z,58.50
2022-10-05T06:44:20.415Z,58.40
2022-10-05T06:46:47.157Z,58.20
2022-10-05T06:49:13.836Z,58.30
2022-10-05T06:51:40.323Z,58.40
2022-10-05T06:54:06.809Z,58.60
2022-10-05T06:56:33.281Z,58.60
2022-10-05T06:58:59.747Z,58.50
2022-10-05T07:01:26.315Z,58.50
2022-10-05T07:03:52.813Z,58.60
2022-10-05T07:06:19.295Z,58.40
2022-10-05T07:08:45.756Z,58.40
2022-10-05T07:11:12.252Z,58.20
2022-10-05T07:13:38.731Z,58.10
2022-10-05T07:16:05.314Z,58.20
2022-10-05T07:18:31.838Z,58.20
2022-10-05T07:20:58.332Z,58.40
2022-10-05T07:23:24.819Z,58.40
2022-10-05T07:25:51.305Z,58.50
2022-10-05T07:28:17.816Z,58.50
2022-10-05T07:30:44.438Z,58.50
2022-10-05T07:33:10.942Z,58.60
2022-10-05T07:35:37.443Z,58.70
2022-10-05T07:38:03.925Z,58.70
2022-10-05T07:40:30.402Z,58.50
2022-10-05T07:42:56.881Z,58.60
2022-10-05T07:45:23.357Z,58.70
2022-10-05T07:47:49.841Z,58.80
2022-10-05T07:50:16.314Z,58.60
2022-10-05T07:52:42.785Z,58.60
2022-10-05T07:55:09.262Z,58.40
2022-10-05T07:57:35.741Z,58.50
2022-10-05T08:00:02.213Z,58.40
2022-10-05T08:02:28.748Z,58.50
2022-10-05T08:04:55.334Z,58.60
2022-10-05T08:07:21.821Z,58.60
2022-10-05T08:09:48.283Z,58.60
2022-10-05T08:12:14.757Z,58.50
2022-10-05T08:14:41.242Z,58.60
2022-10-05T08:17:07.731Z,58.60
2022-10-05T08:19:34.208Z,58.60
2022-10-05T08:22:00.677Z,58.60
2022-10-05T08:24:27.152Z,58.60
2022-10-05T08:26:53.646Z,58.60
2022-10-05T08:29:20.129Z,58.60
2022-10-05T08:31:46.895Z,58.60
2022-10-05T08:34:13.635Z,58.60
2022-10-05T08:36:40.118Z,58.70
2022-10-05T08:39:06.597Z,58.60
2022-10-05T08:41:33.068Z,58.70
2022-10-05T08:43:59.537Z,58.70
2022-10-05T08:46:26.091Z,58.80
2022-10-05T08:48:52.630Z,58.80
2022-10-05T08:51:19.099Z,58.70
2022-10-05T08:53:45.565Z,58.80
2022-10-05T08:56:15.289Z,58.80
2022-10-05T08:58:44.180Z,58.90
2022-10-05T09:01:10.684Z,59.50
2022-10-05T09:03:37.160Z,59.00
2022-10-05T09:06:03.631Z,58.80
2022-10-05T09:08:30.099Z,58.90
2022-10-05T09:10:56.587Z,58.90
2022-10-05T09:13:23.038Z,58.90
2022-10-05T09:15:49.578Z,59.00
2022-10-05T09:18:16.102Z,59.00
2022-10-05T09:20:42.603Z,58.90
2022-10-05T09:23:09.082Z,58.90
2022-10-05T09:25:35.599Z,58.60
2022-10-05T09:28:02.097Z,59.00
2022-10-05T09:30:28.579Z,58.70
2022-10-05T09:32:55.045Z,58.80
2022-10-05T09:35:21.522Z,58.70
2022-10-05T09:37:47.994Z,58.80
2022-10-05T09:40:14.498Z,59.00
2022-10-05T09:42:40.973Z,58.50
2022-10-05T09:45:07.473Z,58.70
2022-10-05T09:47:33.934Z,58.90
2022-10-05T09:50:03.206Z,59.00
2022-10-05T09:52:29.677Z,58.90
2022-10-05T09:54:56.148Z,58.80
2022-10-05T09:57:22.637Z,58.90
2022-10-05T09:59:49.100Z,58.80
2022-10-05T10:02:15.694Z,58.80
2022-10-05T10:04:42.233Z,58.80
2022-10-05T10:07:08.716Z,58.80
2022-10-05T10:09:37.945Z,58.80
2022-10-05T10:12:05.126Z,58.80
2022-10-05T10:14:31.579Z,58.50
2022-10-05T10:16:58.067Z,58.60
2022-10-05T10:19:24.558Z,58.60
2022-10-05T10:21:51.014Z,58.70
2022-10-05T10:24:17.480Z,58.80
2022-10-05T10:26:43.955Z,58.80
2022-10-05T10:29:10.423Z,58.60
2022-10-05T10:31:36.893Z,58.50
2022-10-05T10:34:03.397Z,58.70
2022-10-05T10:36:29.874Z,58.70
2022-10-05T10:38:56.359Z,58.80
2022-10-05T10:41:22.845Z,58.70
2022-10-05T10:43:49.322Z,58.60
2022-10-05T10:46:15.831Z,58.60
2022-10-05T10:48:42.326Z,58.70
2022-10-05T10:51:08.828Z,58.50
2022-10-05T10:53:35.297Z,58.60
2022-10-05T10:56:01.780Z,58.60
2022-10-05T10:58:28.245Z,58.60
2022-10-05T11:00:54.739Z,58.60
2022-10-05T11:03:21.445Z,58.70
2022-10-05T11:05:48.892Z,58.60
2022-10-05T11:08:15.548Z,58.60
2022-10-05T11:10:42.011Z,58.60
2022-10-05T11:13:08.481Z,58.90
2022-10-05T11:15:35.000Z,58.80
2022-10-05T11:18:01.502Z,58.80
2022-10-05T11:20:28.000Z,58.90
2022-10-05T11:22:54.480Z,58.80
2022-10-05T11:25:20.961Z,58.80
2022-10-05T11:27:47.421Z,58.90
2022-10-05T11:30:13.920Z,58.70
2022-10-05T11:32:40.398Z,58.80
2022-10-05T11:35:06.900Z,58.90
2022-10-05T11:37:33.365Z,58.70
2022-10-05T11:39:59.867Z,58.80
2022-10-05T11:42:26.337Z,58.70
2022-10-05T11:44:52.805Z,58.90
2022-10-05T11:47:19.274Z,58.90
2022-10-05T11:49:45.754Z,59.00
2022-10-05T11:52:12.235Z,58.90
2022-10-05T11:55:05.837Z,58.80
2022-10-05T11:57:25.154Z,58.90
2022-10-05T11:59:51.614Z,58.80
2022-10-05T12:02:18.087Z,59.00
2022-10-05T12:04:44.566Z,58.90
2022-10-05T12:07:11.037Z,58.80
2022-10-05T12:09:37.495Z,58.80
2022-10-05T12:12:03.965Z,58.80
2022-10-05T12:14:30.442Z,59.00
2022-10-05T12:16:56.931Z,58.90
2022-10-05T12:19:23.410Z,58.90
2022-10-05T12:21:49.867Z,58.90
2022-10-05T12:24:16.347Z,59.10
2022-10-05T12:26:42.824Z,58.90
2022-10-05T12:29:09.274Z,59.00
2022-10-05T12:31:35.811Z,58.80
2022-10-05T12:34:02.327Z,59.00
2022-10-05T12:36:46.254Z,59.10
2022-10-05T12:39:15.254Z,59.20
2022-10-05T12:41:41.758Z,59.10
2022-10-05T12:44:08.223Z,59.00
2022-10-05T12:46:34.708Z,59.30
2022-10-05T12:49:01.175Z,59.20
2022-10-05T12:51:27.657Z,59.10
2022-10-05T12:53:54.118Z,59.30
2022-10-05T12:56:20.593Z,59.20
2022-10-05T12:58:47.054Z,59.40
2022-10-05T13:01:13.570Z,59.30
2022-10-05T13:03:40.052Z,59.40
2022-10-05T13:06:06.536Z,59.40
2022-10-05T13:08:33.009Z,59.40
2022-10-05T13:11:01.986Z,59.40
2022-10-05T13:13:28.745Z,59.30
2022-10-05T13:15:55.454Z,59.30
2022-10-05T13:18:21.980Z,59.40
2022-10-05T13:20:48.463Z,59.50
2022-10-05T13:23:14.942Z,59.60
2022-10-05T13:25:41.428Z,59.60
2022-10-05T13:28:07.948Z,59.80
2022-10-05T13:30:34.508Z,59.90
2022-10-05T13:33:00.989Z,59.90
2022-10-05T13:35:27.491Z,59.90
2022-10-05T13:37:53.960Z,60.00
2022-10-05T13:40:20.435Z,60.00
2022-10-05T13:42:46.924Z,60.10
2022-10-05T13:45:13.393Z,60.10
2022-10-05T13:47:39.865Z,60.20
2022-10-05T13:50:06.377Z,60.00
2022-10-05T13:52:32.856Z,60.10
2022-10-05T13:54:59.319Z,60.00
2022-10-05T13:57:25.807Z,60.20
2022-10-05T13:59:52.283Z,60.10
2022-10-05T14:02:18.785Z,60.10
2022-10-05T14:04:45.265Z,60.10
2022-10-05T14:07:11.755Z,60.10
2022-10-05T14:09:38.226Z,60.10
2022-10-05T14:12:04.724Z,60.10
2022-10-05T14:14:31.197Z,60.10
2022-10-05T14:16:57.738Z,60.10
2022-10-05T14:19:24.299Z,60.20
2022-10-05T14:21:50.796Z,60.30
2022-10-05T14:24:32.095Z,60.40
2022-10-05T14:27:03.755Z,60.50
2022-10-05T14:29:30.268Z,60.50
2022-10-05T14:31:56.811Z,60.40
2022-10-05T14:34:23.381Z,60.50
2022-10-05T14:36:49.857Z,61.20
2022-10-05T14:39:16.311Z,61.40
2022-10-05T14:41:42.779Z,60.70
2022-10-05T14:44:09.260Z,60.60
2022-10-05T14:46:35.778Z,60.60
2022-10-05T14:49:02.276Z,60.60
2022-10-05T14:51:28.750Z,60.70
2022-10-05T14:53:55.361Z,60.60
2022-10-05T14:56:21.846Z,60.60
2022-10-05T14:58:48.347Z,60.60
2022-10-05T15:01:14.982Z,60.60
2022-10-05T15:03:41.502Z,60.70
2022-10-05T15:06:08.004Z,60.80
2022-10-05T15:08:34.472Z,60.70
2022-10-05T15:11:00.978Z,60.60
2022-10-05T15:13:27.454Z,60.70
2022-10-05T15:15:53.970Z,60.70
2022-10-05T15:18:20.440Z,60.80
2022-10-05T15:20:46.917Z,60.80
2022-10-05T15:23:13.391Z,60.90
2022-10-05T15:25:39.862Z,60.90
2022-10-05T15:28:06.410Z,61.00
2022-10-05T15:30:32.931Z,61.00
2022-10-05T15:32:59.425Z,60.90
2022-10-05T15:35:25.916Z,61.00
2022-10-05T15:37:52.395Z,61.00
2022-10-05T15:40:18.904Z,61.00
2022-10-05T15:42:45.387Z,61.10
2022-10-05T15:45:11.873Z,61.20
2022-10-05T15:47:38.361Z,61.20
2022-10-05T15:50:04.867Z,61.20
2022-10-05T15:52:31.896Z,61.20
2022-10-05T15:54:58.444Z,61.30
2022-10-05T15:57:24.913Z,61.10
2022-10-05T15:59:51.393Z,61.30
2022-10-05T16:02:17.983Z,61.20
2022-10-05T16:04:44.511Z,61.20
2022-10-05T16:07:11.006Z,61.40
2022-10-05T16:09:37.516Z,61.30
2022-10-05T16:12:03.974Z,61.30
2022-10-05T16:14:30.450Z,61.40
2022-10-05T16:16:59.779Z,61.30
2022-10-05T16:19:26.279Z,61.30
2022-10-05T16:21:52.774Z,61.50
2022-10-05T16:24:19.240Z,61.50
2022-10-05T16:26:45.717Z,61.50
2022-10-05T16:29:12.188Z,61.40
2022-10-05T16:31:38.675Z,61.40
2022-10-05T16:34:05.175Z,61.50
2022-10-05T16:36:31.641Z,61.50
2022-10-05T16:38:58.106Z,61.40
2022-10-05T16:41:24.589Z,61.40
2022-10-05T16:43:51.067Z,61.50
2022-10-05T16:46:20.832Z,61.50
2022-10-05T16:48:48.454Z,61.50
2022-10-05T16:51:14.943Z,61.50
2022-10-05T16:53:41.427Z,61.50
2022-10-05T16:56:07.891Z,61.70
2022-10-05T16:58:34.360Z,61.60
2022-10-05T17:01:00.833Z,61.70
2022-10-05T17:03:27.302Z,61.70
2022-10-05T17:05:53.807Z,61.70
2022-10-05T17:08:20.286Z,61.50
2022-10-05T17:10:46.791Z,61.50
2022-10-05T17:13:13.268Z,61.50
2022-10-05T17:15:39.881Z,61.80
2022-10-05T17:18:06.459Z,61.70
2022-10-05T17:20:32.947Z,61.80
2022-10-05T17:22:59.422Z,61.90
2022-10-05T17:25:25.911Z,61.90
2022-10-05T17:27:52.383Z,62.00
2022-10-05T17:30:18.872Z,62.00
2022-10-05T17:32:45.336Z,62.00
2022-10-05T17:35:15.928Z,62.10
2022-10-05T17:37:44.571Z,62.00
2022-10-05T17:40:11.026Z,62.10
2022-10-05T17:42:37.483Z,62.10
2022-10-05T17:45:03.959Z,62.20
2022-10-05T17:47:30.445Z,62.10
2022-10-05T17:49:56.913Z,62.10
2022-10-05T17:52:23.381Z,62.00
2022-10-05T17:54:49.848Z,62.10
2022-10-05T17:57:16.318Z,62.10
2022-10-05T17:59:42.789Z,62.20
2022-10-05T18:02:09.299Z,62.30
2022-10-05T18:04:35.791Z,62.10
2022-10-05T18:07:02.296Z,62.20
2022-10-05T18:09:28.769Z,62.10
2022-10-05T18:11:55.266Z,62.10
2022-10-05T18:14:21.736Z,62.20
2022-10-05T18:16:48.214Z,62.10
2022-10-05T18:19:14.703Z,62.30
2022-10-05T18:21:41.191Z,62.20
2022-10-05T18:24:07.671Z,62.20
2022-10-05T18:26:34.157Z,62.20
2022-10-05T18:29:00.618Z,62.20
2022-10-05T18:31:27.131Z,62.20
2022-10-05T18:33:53.621Z,62.30
2022-10-05T18:36:20.097Z,62.30
2022-10-05T18:38:46.585Z,62.10
2022-10-05T18:41:13.072Z,62.20
2022-10-05T18:43:39.533Z,62.30
2022-10-05T18:46:06.020Z,62.20
2022-10-05T18:48:33.645Z,62.20
2022-10-05T18:51:00.108Z,62.30
2022-10-05T18:53:26.576Z,62.20
2022-10-05T18:55:53.074Z,62.10
2022-10-05T18:58:19.502Z,62.20
2022-10-05T19:00:46.014Z,62.20
2022-10-05T19:03:12.494Z,62.20
2022-10-05T19:05:54.188Z,62.20
2022-10-05T19:08:20.651Z,62.20
2022-10-05T19:10:47.136Z,62.20
2022-10-05T19:13:13.591Z,62.10
2022-10-05T19:15:40.114Z,62.30
2022-10-05T19:18:06.609Z,62.20
2022-10-05T19:20:33.100Z,62.20
2022-10-05T19:22:59.675Z,62.20
2022-10-05T19:25:26.171Z,62.10
2022-10-05T19:27:55.369Z,62.10
2022-10-05T19:30:22.112Z,62.20
2022-10-05T19:32:48.595Z,62.10
2022-10-05T19:35:15.065Z,62.90
2022-10-05T19:37:41.528Z,62.10
2022-10-05T19:40:09.715Z,62.20
2022-10-05T19:42:36.605Z,62.10
2022-10-05T19:45:03.118Z,62.00
2022-10-05T19:47:29.583Z,62.10
2022-10-05T19:49:56.033Z,62.00
2022-10-05T19:52:22.524Z,62.00
2022-10-05T19:54:49.002Z,62.10
2022-10-05T19:57:15.494Z,62.00
2022-10-05T19:59:41.950Z,62.00
2022-10-05T20:02:08.489Z,62.00
2022-10-05T20:04:34.986Z,62.00
2022-10-05T20:07:01.466Z,62.00
2022-10-05T20:09:27.944Z,62.00
2022-10-05T20:11:54.433Z,62.00
2022-10-05T20:14:20.923Z,62.00
2022-10-05T20:16:47.391Z,62.00
2022-10-05T20:19:13.860Z,62.00
2022-10-05T20:21:40.347Z,62.00
2022-10-05T20:24:06.806Z,62.00
2022-10-05T20:26:33.285Z,62.00
2022-10-05T20:28:59.751Z,62.00
2022-10-05T20:31:26.264Z,62.00
2022-10-05T20:33:52.797Z,61.90
2022-10-05T20:36:19.258Z,61.90
2022-10-05T20:38:45.726Z,62.00
2022-10-05T20:41:12.203Z,62.00
2022-10-05T20:43:38.650Z,62.00
2022-10-05T20:46:05.110Z,62.00
2022-10-05T20:48:31.738Z,62.00
2022-10-05T20:50:58.392Z,61.90
2022-10-05T20:53:24.848Z,62.00
2022-10-05T20:55:51.329Z,61.90
2022-10-05T20:58:17.788Z,62.00
2022-10-05T21:00:44.294Z,61.90
2022-10-05T21:03:10.789Z,62.00
2022-10-05T21:05:37.265Z,62.00
2022-10-05T21:08:03.727Z,62.00
2022-10-05T21:10:30.239Z,62.00
2022-10-05T21:12:56.717Z,62.00
2022-10-05T21:15:23.187Z,62.00
2022-10-05T21:17:49.676Z,61.90
2022-10-05T21:20:16.136Z,62.00
2022-10-05T21:22:42.614Z,62.00
2022-10-05T21:25:09.111Z,62.00
2022-10-05T21:27:35.576Z,62.00
2022-10-05T21:30:02.028Z,62.00
2022-10-05T21:32:28.503Z,62.00
2022-10-05T21:34:54.995Z,61.90
2022-10-05T21:37:21.487Z,61.90
2022-10-05T21:39:47.951Z,62.00
2022-10-05T21:42:14.436Z,62.00
2022-10-05T21:44:40.932Z,62.00
2022-10-05T21:47:07.408Z,61.90
2022-10-05T21:49:33.868Z,61.90
2022-10-05T21:52:00.352Z,61.80
2022-10-05T21:54:26.819Z,61.90
2022-10-05T21:56:53.298Z,62.00
2022-10-05T21:59:19.763Z,61.90
2022-10-05T22:01:46.261Z,62.00
2022-10-05T22:04:12.748Z,62.10
2022-10-05T22:06:39.239Z,62.20
2022-10-05T22:09:05.694Z,62.10
2022-10-05T22:11:32.179Z,62.40
2022-10-05T22:13:58.691Z,62.60
2022-10-05T22:16:25.220Z,62.70
2022-10-05T22:18:51.740Z,62.40
2022-10-05T22:21:18.202Z,62.70
2022-10-05T22:23:44.666Z,62.60
2022-10-05T22:26:11.140Z,62.80
2022-10-05T22:28:37.668Z,62.70
2022-10-05T22:31:04.198Z,62.90
2022-10-05T22:33:30.670Z,63.00
2022-10-05T22:35:57.158Z,62.90
2022-10-05T22:38:23.636Z,62.80
2022-10-05T22:40:50.098Z,63.00
2022-10-05T22:43:16.564Z,63.10
2022-10-05T22:45:43.079Z,63.20
2022-10-05T22:48:09.573Z,63.30
2022-10-05T22:50:36.060Z,63.20
2022-10-05T22:53:02.524Z,63.10
2022-10-05T22:55:29.037Z,63.20
2022-10-05T22:57:55.509Z,63.00
2022-10-05T23:00:27.563Z,63.10
2022-10-05T23:02:54.264Z,63.10
2022-10-05T23:05:20.754Z,63.20
2022-10-05T23:07:47.218Z,63.20
2022-10-05T23:10:13.688Z,63.20
2022-10-05T23:12:40.156Z,63.10
2022-10-05T23:15:06.633Z,63.20
2022-10-05T23:17:33.108Z,63.20
2022-10-05T23:19:59.572Z,63.40
2022-10-05T23:22:26.045Z,63.50
2022-10-05T23:24:52.516Z,63.70
2022-10-05T23:27:18.993Z,64.00
2022-10-05T23:29:45.483Z,64.10
2022-10-05T23:32:11.956Z,64.30
2022-10-05T23:34:38.412Z,64.50
2022-10-05T23:37:04.874Z,64.40
2022-10-05T23:39:31.341Z,64.50
2022-10-05T23:41:57.821Z,64.50
2022-10-05T23:44:24.295Z,64.30
2022-10-05T23:46:50.777Z,64.50
2022-10-05T23:49:17.255Z,64.40
2022-10-05T23:51:43.742Z,64.40
2022-10-05T23:54:10.218Z,64.40
2022-10-05T23:56:36.692Z,64.30
2022-10-05T23:59:03.175Z,64.20
